Time;durP1;ratioP1;P1;durP2;ratioP2;P2;SDS_P1;SDS_P2;PMS_P1;PMS_P2;Temp;Humidity;BMP_temperature;BMP_pressure;BME280_temperature;BME280_humidity;BME280_pressure;Samples;Min_cycle;Max_cycle;Signal;HPM_P1;HPM_P2
2021/09/06 00:00:51;;;;;;;7.35;5.85;;;18.60;99.90;;;18.44;100.00;101598.72;4184894;28;20455;-66
2021/09/06 00:02:52;;;;;;;6.47;5.45;;;18.60;99.90;;;18.36;100.00;101596.16;4185067;28;20032;-66
2021/09/06 00:04:53;;;;;;;6.88;5.90;;;18.60;99.90;;;18.35;100.00;101600.66;4185139;28;20051;-66
2021/09/06 00:06:54;;;;;;;7.88;6.82;;;18.60;99.90;;;18.35;100.00;101603.34;4184044;28;20040;-66
2021/09/06 00:08:55;;;;;;;6.20;5.60;;;18.50;99.90;;;18.33;100.00;101605.38;4185073;28;20051;-66
2021/09/06 00:11:09;;;;;;;7.32;6.63;;;18.50;99.90;;;18.36;100.00;101612.19;4184811;28;20052;-66
2021/09/06 00:13:14;;;;;;;6.25;5.65;;;18.50;99.90;;;18.29;100.00;101609.41;4185188;28;20065;-66
2021/09/06 00:15:15;;;;;;;7.60;6.55;;;18.50;99.90;;;18.30;100.00;101607.59;4184661;28;20516;-66
2021/09/06 00:17:16;;;;;;;7.35;6.47;;;18.50;99.90;;;18.28;100.00;101607.75;4167218;28;20028;-66
2021/09/06 00:19:17;;;;;;;9.27;7.00;;;18.50;99.90;;;18.26;100.00;101615.13;4184932;28;20036;-66
2021/09/06 00:21:18;;;;;;;8.70;5.75;;;18.50;99.90;;;18.17;100.00;101602.88;4185057;28;20031;-66
2021/09/06 00:23:19;;;;;;;7.55;5.82;;;18.40;99.90;;;18.16;100.00;101610.06;4183973;28;20370;-66
2021/09/06 00:25:21;;;;;;;6.63;5.97;;;18.40;99.90;;;18.19;100.00;101603.53;4185039;28;20025;-66
2021/09/06 00:27:22;;;;;;;6.63;6.03;;;18.40;99.90;;;18.17;100.00;101606.38;4184715;28;20078;-66
2021/09/06 00:29:23;;;;;;;6.40;5.70;;;18.40;99.90;;;18.15;100.00;101603.09;4184884;28;20017;-66
2021/09/06 00:31:24;;;;;;;7.10;6.07;;;18.40;99.90;;;18.14;100.00;101606.75;4184982;28;20064;-66
2021/09/06 00:33:25;;;;;;;7.63;6.75;;;18.30;99.90;;;18.12;100.00;101597.28;4184862;28;20029;-66
2021/09/06 00:35:26;;;;;;;8.07;6.45;;;18.30;99.90;;;18.09;100.00;101597.66;4184687;28;20025;-66
2021/09/06 00:37:27;;;;;;;6.78;6.05;;;18.30;99.90;;;18.08;100.00;101599.47;4184924;28;20113;-66
2021/09/06 00:39:28;;;;;;;7.43;6.45;;;18.30;99.90;;;18.10;100.00;101599.28;4184927;28;20025;-66
2021/09/06 00:41:29;;;;;;;6.90;5.70;;;18.30;99.90;;;18.09;100.00;101597.66;4184762;28;20508;-66
2021/09/06 00:43:30;;;;;;;7.45;6.63;;;18.20;99.90;;;18.07;100.00;101595.16;4184712;28;20052;-66
2021/09/06 00:45:31;;;;;;;7.95;6.50;;;18.20;99.90;;;18.01;100.00;101600.41;4184587;28;20506;-66
2021/09/06 00:47:34;;;;;;;7.32;6.22;;;18.20;99.90;;;17.94;100.00;101604.81;4185041;28;20036;-66
2021/09/06 00:49:35;;;;;;;8.37;6.30;;;18.20;99.90;;;17.92;100.00;101604.19;4184829;28;20373;-66
2021/09/06 00:51:36;;;;;;;8.40;7.18;;;18.20;99.90;;;17.91;100.00;101605.19;4184760;28;20052;-66
2021/09/06 00:53:37;;;;;;;7.65;6.95;;;18.20;99.90;;;17.91;100.00;101607.84;4184917;28;20025;-66
2021/09/06 00:55:38;;;;;;;8.52;7.00;;;18.10;99.90;;;17.89;100.00;101602.69;4184624;28;20040;-66
2021/09/06 00:57:40;;;;;;;8.00;7.05;;;18.10;99.90;;;17.88;100.00;101608.22;4167273;28;20046;-66
2021/09/06 00:59:41;;;;;;;8.77;7.88;;;18.10;99.90;;;17.93;100.00;101603.16;4183163;28;20074;-66
2021/09/06 01:01:41;;;;;;;9.02;6.78;;;18.10;99.90;;;17.94;100.00;101610.16;4184706;28;20053;-66
2021/09/06 01:03:42;;;;;;;9.13;7.32;;;18.10;99.90;;;17.93;100.00;101603.16;4184779;28;20024;-66
2021/09/06 01:05:43;;;;;;;7.78;6.97;;;18.10;99.90;;;17.91;100.00;101605.19;4166904;28;20057;-66
2021/09/06 01:07:44;;;;;;;8.43;7.53;;;18.10;99.90;;;17.90;100.00;101604.34;4166773;28;20025;-66
2021/09/06 01:09:46;;;;;;;8.10;7.32;;;18.10;99.90;;;17.85;100.00;101598.75;4184889;28;20029;-66
2021/09/06 01:11:47;;;;;;;7.90;7.10;;;18.10;99.90;;;17.83;100.00;101597.28;4184648;28;20055;-66
2021/09/06 01:13:48;;;;;;;8.52;7.72;;;18.10;99.90;;;17.86;100.00;101603.03;4184617;28;20502;-66
2021/09/06 01:15:48;;;;;;;7.82;7.13;;;18.10;99.90;;;17.85;100.00;101597.91;4184056;28;20033;-66
2021/09/06 01:17:49;;;;;;;10.70;7.45;;;18.00;99.90;;;17.84;100.00;101604.25;4184518;28;20033;-66
2021/09/06 01:19:50;;;;;;;8.38;7.57;;;18.10;99.90;;;17.83;100.00;101598.06;4184620;28;20114;-66
2021/09/06 01:21:51;;;;;;;7.60;6.85;;;18.00;99.90;;;17.79;100.00;101599.47;4184573;28;20033;-66
2021/09/06 01:23:52;;;;;;;9.65;8.25;;;18.00;99.90;;;17.80;100.00;101589.63;4186890;28;20032;-66
2021/09/06 01:25:53;;;;;;;10.13;9.13;;;18.00;99.90;;;17.83;100.00;101591.94;4186480;28;20057;-66
2021/09/06 01:27:54;;;;;;;9.18;8.27;;;18.00;99.90;;;17.82;100.00;101588.44;4187588;28;20036;-66
2021/09/06 01:29:55;;;;;;;9.18;8.25;;;18.00;99.90;;;17.85;100.00;101596.06;4187303;28;20040;-66
2021/09/06 01:31:56;;;;;;;8.18;7.28;;;18.00;99.90;;;17.80;100.00;101578.94;4187536;28;20477;-66
2021/09/06 01:33:57;;;;;;;8.55;6.95;;;18.00;99.90;;;17.79;100.00;101586.13;4187594;28;20044;-66
2021/09/06 01:35:58;;;;;;;8.18;7.40;;;18.00;99.90;;;17.80;100.00;101586.97;4187442;28;20404;-66
2021/09/06 01:37:59;;;;;;;7.88;7.05;;;18.00;99.90;;;17.78;100.00;101591.63;4187467;28;20091;-66
2021/09/06 01:40:00;;;;;;;7.07;6.40;;;18.00;99.90;;;17.75;100.00;101578.66;4187384;28;20477;-66
2021/09/06 01:42:01;;;;;;;9.20;7.60;;;18.00;99.90;;;17.73;100.00;101586.03;4187407;28;20025;-65
2021/09/06 01:44:03;;;;;;;8.52;7.72;;;17.90;99.90;;;17.73;100.00;101581.50;4187519;28;20421;-66
2021/09/06 01:46:03;;;;;;;10.60;8.85;;;17.90;99.90;;;17.72;100.00;101576.34;4187045;28;20036;-66
2021/09/06 01:48:05;;;;;;;10.38;9.27;;;17.90;99.90;;;17.72;100.00;101573.69;4187216;28;20029;-66
2021/09/06 01:50:07;;;;;;;10.43;8.77;;;17.90;99.90;;;17.73;100.00;101584.19;4187186;28;20457;-65
2021/09/06 01:52:07;;;;;;;9.98;8.70;;;18.00;99.90;;;17.74;100.00;101583.16;4187225;28;20481;-66
2021/09/06 01:54:09;;;;;;;11.25;10.05;;;17.90;99.90;;;17.83;100.00;101573.25;4187136;28;20033;-66
2021/09/06 01:56:10;;;;;;;13.55;11.48;;;18.00;99.90;;;17.82;100.00;101571.59;4187022;28;20033;-66
2021/09/06 01:58:11;;;;;;;10.55;9.38;;;18.00;99.90;;;17.80;100.00;101571.75;4186987;28;20067;-65
2021/09/06 02:00:12;;;;;;;10.10;8.68;;;18.00;99.90;;;17.81;100.00;101583.25;4186800;28;20075;-66
2021/09/06 02:02:13;;;;;;;9.20;8.20;;;18.00;99.90;;;17.86;100.00;101578.22;4169272;28;20479;-65
2021/09/06 02:04:14;;;;;;;11.23;9.45;;;18.00;99.90;;;17.78;100.00;101568.44;4186973;28;20029;-66
2021/09/06 02:06:15;;;;;;;11.23;9.40;;;18.00;99.90;;;17.80;100.00;101586.97;4185747;28;20059;-66
2021/09/06 02:08:16;;;;;;;12.30;9.48;;;18.00;99.90;;;17.78;100.00;101576.44;4186980;28;20029;-66
2021/09/06 02:10:17;;;;;;;11.35;9.85;;;18.00;99.90;;;17.87;100.00;101594.03;4186936;28;20483;-66
2021/09/06 02:12:18;;;;;;;10.13;9.07;;;18.10;99.90;;;17.83;100.00;101589.25;4186818;28;20025;-66
2021/09/06 02:14:19;;;;;;;9.30;8.30;;;18.00;99.90;;;17.81;100.00;101604.59;4186473;28;20040;-66
2021/09/06 02:16:20;;;;;;;8.75;7.85;;;18.00;99.90;;;17.78;100.00;101594.28;4186437;28;20099;-66
2021/09/06 02:18:21;;;;;;;9.38;8.48;;;18.00;99.90;;;17.77;100.00;101601.47;4186653;28;20026;-66
2021/09/06 02:20:22;;;;;;;11.57;9.38;;;18.00;99.90;;;17.79;100.00;101598.63;4186601;28;20021;-66
2021/09/06 02:22:23;;;;;;;11.85;9.45;;;18.00;99.90;;;17.74;100.00;101598.34;4186597;28;20033;-66
2021/09/06 02:24:26;;;;;;;11.13;10.02;;;18.00;99.90;;;17.73;100.00;101594.84;4186629;28;20049;-66
2021/09/06 02:26:27;;;;;;;11.18;9.98;;;18.00;99.90;;;17.78;100.00;101599.63;4186736;28;20507;-66
2021/09/06 02:28:28;;;;;;;12.32;10.82;;;18.00;99.90;;;17.79;100.00;101595.97;4186583;28;20068;-66
2021/09/06 02:30:29;;;;;;;11.95;10.38;;;18.00;99.90;;;17.82;100.00;101600.94;4186114;28;20033;-66
2021/09/06 02:32:30;;;;;;;13.02;10.30;;;18.00;99.90;;;17.77;100.00;101598.78;4186509;28;20064;-66
2021/09/06 02:34:31;;;;;;;12.57;11.27;;;18.00;99.90;;;17.81;100.00;101594.75;4186466;28;20025;-66
2021/09/06 02:36:33;;;;;;;13.32;11.93;;;18.00;99.90;;;17.96;100.00;101598.28;4186290;28;20051;-66
2021/09/06 02:38:33;;;;;;;14.68;10.90;;;18.00;99.90;;;17.86;100.00;101597.72;4186224;28;20036;-66
2021/09/06 02:40:35;;;;;;;13.35;11.60;;;18.10;99.90;;;17.91;100.00;101595.34;4186360;28;20021;-66
2021/09/06 02:42:35;;;;;;;13.18;11.85;;;18.10;99.90;;;17.85;100.00;101603.25;4186206;28;20040;-66
2021/09/06 02:44:36;;;;;;;13.45;12.05;;;18.10;99.90;;;17.92;100.00;101602.31;4185896;28;20480;-66
2021/09/06 02:46:37;;;;;;;11.35;10.15;;;18.00;99.90;;;17.86;100.00;101602.25;4186064;28;20484;-66
2021/09/06 02:48:38;;;;;;;14.40;11.05;;;18.10;99.90;;;17.88;100.00;101608.22;4186170;28;20036;-66
2021/09/06 02:50:39;;;;;;;14.32;12.15;;;18.10;99.90;;;17.91;100.00;101605.19;4186307;28;20037;-66
2021/09/06 02:52:41;;;;;;;14.18;10.38;;;18.10;99.90;;;17.86;100.00;101607.59;4186061;28;20028;-66
2021/09/06 02:54:42;;;;;;;12.05;10.57;;;18.00;99.90;;;17.87;100.00;101604.72;4185942;28;20029;-66
2021/09/06 02:56:44;;;;;;;13.80;12.25;;;18.00;99.90;;;17.95;100.00;101603.81;4185783;28;20039;-66
2021/09/06 02:58:45;;;;;;;15.23;12.02;;;18.00;99.90;;;17.94;100.00;101597.66;4184947;28;20509;-66
2021/09/06 03:00:45;;;;;;;12.75;11.45;;;18.10;99.90;;;17.90;100.00;101601.69;4185815;28;20017;-66
2021/09/06 03:02:46;;;;;;;13.60;12.02;;;18.00;99.90;;;17.90;100.00;101600.84;4185920;28;20075;-66
2021/09/06 03:04:47;;;;;;;13.07;11.60;;;18.00;99.90;;;17.92;100.00;101607.66;4186082;28;20048;-66
2021/09/06 03:06:48;;;;;;;13.93;12.07;;;18.00;99.90;;;17.91;100.00;101597.19;4186034;28;20029;-66
2021/09/06 03:08:49;;;;;;;14.05;12.05;;;18.10;99.90;;;17.99;100.00;101602.41;4185963;28;20136;-66
2021/09/06 03:10:50;;;;;;;15.15;13.55;;;18.10;99.90;;;17.85;100.00;101590.72;4185825;28;20507;-66
2021/09/06 03:12:51;;;;;;;15.18;13.25;;;18.10;99.90;;;17.90;100.00;101598.19;4184787;28;20083;-66
2021/09/06 03:14:52;;;;;;;16.35;14.65;;;18.10;99.90;;;17.92;100.00;101601.50;4185577;28;20036;-66
2021/09/06 03:16:53;;;;;;;18.38;14.05;;;18.10;99.90;;;18.11;100.00;101598.28;4185948;28;20033;-66
2021/09/06 03:18:54;;;;;;;18.00;15.02;;;18.10;99.90;;;18.14;100.00;101600.59;4185857;28;20070;-66
2021/09/06 03:20:55;;;;;;;17.20;14.35;;;18.20;99.90;;;18.14;100.00;101593.41;4185703;28;20498;-66
2021/09/06 03:22:56;;;;;;;17.13;15.15;;;18.20;99.90;;;18.19;100.00;101599.00;4185928;28;20029;-66
2021/09/06 03:24:57;;;;;;;18.25;13.57;;;18.20;99.90;;;18.17;100.00;101603.72;4185704;28;20096;-66
2021/09/06 03:26:58;;;;;;;15.43;13.70;;;18.30;99.90;;;18.16;100.00;101588.69;4185718;28;20036;-66
2021/09/06 03:28:59;;;;;;;17.13;14.40;;;18.30;99.90;;;18.14;100.00;101590.72;4185476;28;20391;-66
2021/09/06 03:31:00;;;;;;;18.20;15.55;;;18.30;99.90;;;18.13;100.00;101588.22;4184319;28;20041;-66
2021/09/06 03:33:00;;;;;;;17.45;14.95;;;18.20;99.90;;;18.16;100.00;101594.03;4185685;28;20400;-66
2021/09/06 03:35:02;;;;;;;17.23;14.90;;;18.30;99.90;;;18.19;100.00;101596.34;4185437;28;20029;-66
2021/09/06 03:37:03;;;;;;;14.73;13.20;;;18.30;99.90;;;18.10;100.00;101601.97;4185455;28;20461;-66
2021/09/06 03:39:03;;;;;;;16.42;13.70;;;18.20;99.90;;;18.02;100.00;101594.03;4185482;28;20078;-66
2021/09/06 03:41:06;;;;;;;15.88;14.20;;;18.20;99.90;;;18.02;100.00;101586.03;4185468;28;20427;-66
2021/09/06 03:43:08;;;;;;;15.30;13.70;;;18.20;99.90;;;17.91;100.00;101582.00;4184172;28;20105;-66
2021/09/06 03:45:09;;;;;;;17.75;14.25;;;18.20;99.90;;;17.88;100.00;101585.03;4183553;28;20377;-66
2021/09/06 03:47:10;;;;;;;15.60;14.05;;;18.10;99.90;;;17.89;100.00;101588.53;4184191;28;20032;-66
2021/09/06 03:49:11;;;;;;;17.27;13.80;;;18.10;99.90;;;17.88;100.00;101587.69;4185506;28;20020;-66
2021/09/06 03:51:12;;;;;;;15.23;12.85;;;18.10;99.90;;;17.82;100.00;101595.59;4185245;28;20025;-66
2021/09/06 03:53:13;;;;;;;15.20;13.52;;;18.10;99.90;;;17.80;100.00;101589.63;4185340;28;20021;-66
2021/09/06 03:55:14;;;;;;;20.35;15.18;;;18.00;99.90;;;17.83;100.00;101602.59;4185283;28;20523;-66
2021/09/06 03:57:15;;;;;;;17.02;14.07;;;18.00;99.90;;;17.75;100.00;101595.50;4185220;28;20033;-66
2021/09/06 03:59:18;;;;;;;19.90;15.85;;;18.00;99.90;;;17.73;100.00;101586.84;4184951;28;20095;-66
2021/09/06 04:01:20;;;;;;;14.82;13.25;;;17.90;99.90;;;17.69;100.00;101594.38;4184999;28;20410;-66
2021/09/06 04:03:21;;;;;;;15.20;13.60;;;17.90;99.90;;;17.64;100.00;101588.78;4185188;28;20056;-66
2021/09/06 04:05:22;;;;;;;14.90;13.30;;;17.90;99.90;;;17.61;100.00;101583.81;4185215;28;20029;-66
2021/09/06 04:07:23;;;;;;;15.82;14.13;;;17.80;99.90;;;17.58;100.00;101576.16;4184966;28;20116;-66
2021/09/06 04:09:24;;;;;;;16.35;13.77;;;17.80;99.90;;;17.61;100.00;101582.97;4184903;28;20048;-66
2021/09/06 04:11:25;;;;;;;17.85;15.75;;;17.80;99.90;;;17.72;100.00;101579.00;4185013;28;20067;-66
2021/09/06 04:13:26;;;;;;;17.55;15.23;;;17.80;99.90;;;17.77;100.00;101588.13;4185072;28;20029;-66
2021/09/06 04:15:27;;;;;;;19.10;15.15;;;17.90;99.90;;;17.79;100.00;101582.63;4184625;28;20109;-66
2021/09/06 04:17:28;;;;;;;18.42;15.82;;;17.90;99.90;;;17.82;100.00;101583.09;4184953;28;20104;-66
2021/09/06 04:19:32;;;;;;;18.00;14.38;;;17.90;99.90;;;17.80;100.00;101590.44;4185125;28;20025;-65
2021/09/06 04:21:33;;;;;;;16.70;14.32;;;17.90;99.90;;;17.77;100.00;101587.31;4185050;28;20029;-66
2021/09/06 04:23:34;;;;;;;19.90;16.55;;;17.90;99.90;;;17.87;100.00;101587.88;4184981;28;20029;-66
2021/09/06 04:25:35;;;;;;;15.43;13.85;;;17.90;99.90;;;17.84;100.00;101593.56;4184759;28;20052;-66
2021/09/06 04:27:37;;;;;;;17.27;15.32;;;17.90;99.90;;;17.81;100.00;101593.94;4185004;28;20068;-65
2021/09/06 04:29:38;;;;;;;20.33;17.80;;;17.90;99.90;;;17.90;100.00;101595.50;4184803;28;20055;-66
2021/09/06 04:31:39;;;;;;;18.55;16.65;;;17.90;99.90;;;17.87;100.00;101587.88;4184969;28;20089;-66
2021/09/06 04:33:40;;;;;;;16.50;14.68;;;18.00;99.90;;;17.76;100.00;101585.66;4184879;28;20037;-66
2021/09/06 04:35:41;;;;;;;19.98;16.73;;;17.90;99.90;;;17.80;100.00;101581.63;4184929;28;20158;-66
2021/09/06 04:37:42;;;;;;;18.90;16.15;;;17.90;99.90;;;17.84;100.00;101577.56;4184963;28;20548;-66
2021/09/06 04:39:43;;;;;;;26.85;15.43;;;17.90;99.90;;;17.80;100.00;101582.41;4184853;28;20029;-66
2021/09/06 04:41:44;;;;;;;18.70;16.10;;;17.90;99.90;;;17.71;100.00;101585.38;4184805;28;20056;-66
2021/09/06 04:43:47;;;;;;;16.90;14.73;;;17.90;99.90;;;17.62;100.00;101581.97;4184884;28;20496;-66
2021/09/06 04:45:48;;;;;;;18.42;15.00;;;17.90;99.90;;;17.65;100.00;101586.94;4184588;28;20028;-66
2021/09/06 04:47:49;;;;;;;17.13;14.65;;;17.80;99.90;;;17.72;100.00;101595.84;4184807;28;20412;-65
2021/09/06 04:49:50;;;;;;;17.75;14.73;;;17.80;99.90;;;17.75;100.00;101581.31;4184708;28;20061;-65
2021/09/06 04:51:51;;;;;;;19.67;17.58;;;17.90;99.90;;;17.78;100.00;101583.63;4184851;28;20033;-65
2021/09/06 04:53:52;;;;;;;20.25;15.55;;;17.80;99.90;;;17.72;100.00;101587.03;4184771;28;20029;-66
2021/09/06 04:55:53;;;;;;;17.42;15.43;;;17.80;99.90;;;17.68;100.00;101587.38;4184686;28;20029;-66
2021/09/06 04:57:54;;;;;;;18.85;15.43;;;17.90;99.90;;;17.63;100.00;101588.94;4185720;28;20025;-65
2021/09/06 04:59:55;;;;;;;16.58;14.88;;;17.80;99.90;;;17.54;100.00;101596.19;4187707;28;20040;-66
2021/09/06 05:01:56;;;;;;;19.98;15.65;;;17.80;99.90;;;17.61;100.00;101583.81;4186454;28;20017;-66
2021/09/06 05:03:57;;;;;;;17.15;14.55;;;17.70;99.90;;;17.58;100.00;101602.84;4187844;28;20059;-66
2021/09/06 05:05:59;;;;;;;19.45;16.42;;;17.80;99.90;;;17.60;100.00;101591.97;4187671;28;20423;-66
2021/09/06 05:08:00;;;;;;;16.88;14.65;;;17.80;99.90;;;17.68;100.00;101605.25;4187783;28;20108;-65
2021/09/06 05:10:01;;;;;;;21.00;18.13;;;17.80;99.90;;;17.73;100.00;101604.69;4187790;28;20075;-66
2021/09/06 05:12:03;;;;;;;18.90;16.40;;;17.80;99.90;;;17.65;100.00;101584.28;4187702;28;20033;-65
2021/09/06 05:14:03;;;;;;;19.08;15.13;;;17.80;99.90;;;17.67;100.00;101601.75;4187476;28;20024;-66
2021/09/06 05:16:04;;;;;;;20.55;17.02;;;17.80;99.90;;;17.72;100.00;101601.19;4187052;28;20045;-66
2021/09/06 05:18:05;;;;;;;21.70;15.90;;;17.80;99.90;;;17.67;100.00;101598.25;4187587;28;20142;-66
2021/09/06 05:20:07;;;;;;;18.42;15.25;;;17.80;99.90;;;17.54;100.00;101603.31;4187515;28;20103;-66
2021/09/06 05:22:08;;;;;;;24.95;17.98;;;17.70;99.90;;;17.48;100.00;101607.56;4165810;28;20056;-66
2021/09/06 05:24:09;;;;;;;22.25;15.93;;;17.70;99.90;;;17.45;100.00;101602.56;4187708;28;20025;-66
2021/09/06 05:26:10;;;;;;;19.27;17.33;;;17.70;99.90;;;17.43;100.00;101606.44;4187491;28;20078;-66
2021/09/06 05:28:11;;;;;;;23.88;19.40;;;17.70;99.90;;;17.46;100.00;101612.25;4187355;28;20033;-66
2021/09/06 05:30:12;;;;;;;23.15;18.75;;;17.70;99.90;;;17.55;100.00;101611.19;4187157;28;20055;-66
2021/09/06 05:32:13;;;;;;;18.67;16.75;;;17.60;99.90;;;17.55;100.00;101603.19;4187419;28;20033;-66
2021/09/06 05:34:14;;;;;;;18.23;15.10;;;17.70;99.90;;;17.53;100.00;101618.50;4187237;28;20035;-66
2021/09/06 05:36:15;;;;;;;18.98;16.27;;;17.70;99.90;;;17.53;100.00;101615.03;4188453;28;20040;-66
2021/09/06 05:38:16;;;;;;;16.98;15.02;;;17.70;99.90;;;17.47;100.00;101624.56;4175683;28;20505;-66
2021/09/06 05:40:18;;;;;;;19.80;17.25;;;17.60;99.90;;;17.49;100.00;101617.22;4171599;28;20028;-66
2021/09/06 05:42:19;;;;;;;22.00;17.88;;;17.60;99.90;;;17.57;100.00;101619.84;4170526;28;20022;-66
2021/09/06 05:44:20;;;;;;;18.05;16.08;;;17.70;99.90;;;17.60;100.00;101624.00;4171522;28;20056;-66
2021/09/06 05:46:21;;;;;;;18.80;16.30;;;17.70;99.90;;;17.52;100.00;101627.53;4171598;28;20025;-66
2021/09/06 05:48:22;;;;;;;19.42;15.65;;;17.70;99.90;;;17.50;100.00;101626.88;4171627;28;20033;-66
2021/09/06 05:50:25;;;;;;;19.40;17.30;;;17.60;99.90;;;17.52;100.00;101638.22;4171592;28;20036;-66
2021/09/06 05:52:26;;;;;;;19.83;16.98;;;17.60;99.90;;;17.46;100.00;101636.25;4171735;28;20452;-66
2021/09/06 05:54:27;;;;;;;20.85;17.10;;;17.70;99.90;;;17.49;100.00;101633.22;4171772;28;20104;-66
2021/09/06 05:56:30;;;;;;;20.35;17.35;;;17.60;99.90;;;17.53;100.00;101645.19;4179452;28;20044;-67
2021/09/06 05:58:32;;;;;;;19.35;15.35;;;17.70;99.90;;;17.41;100.00;101638.59;4186133;28;20021;-67
2021/09/06 06:00:34;;;;;;;24.20;18.15;;;17.60;99.90;;;17.43;100.00;101649.13;4186080;28;20029;-67
2021/09/06 06:02:36;;;;;;;26.60;18.38;;;17.60;99.90;;;17.48;100.00;101647.56;4187316;28;20080;-67
2021/09/06 06:04:37;;;;;;;25.95;19.95;;;17.60;99.90;;;17.55;100.00;101653.06;4186932;28;20029;-67
2021/09/06 06:06:38;;;;;;;21.77;18.63;;;17.70;99.90;;;17.55;100.00;101648.56;4186543;28;20048;-67
2021/09/06 06:08:39;;;;;;;22.05;18.58;;;17.70;99.90;;;17.66;100.00;101650.78;4187004;28;20079;-67
2021/09/06 06:10:40;;;;;;;24.25;18.83;;;17.80;99.90;;;17.65;100.00;101643.78;4169132;28;20049;-67
2021/09/06 06:12:41;;;;;;;24.13;19.65;;;17.80;99.90;;;17.73;100.00;101650.91;4184245;28;20033;-66
2021/09/06 06:14:42;;;;;;;22.20;19.00;;;17.80;99.90;;;17.71;100.00;101646.75;4168850;28;20040;-67
2021/09/06 06:16:44;;;;;;;22.25;18.13;;;17.90;99.90;;;17.74;100.00;101646.41;4154118;28;20030;-66
2021/09/06 06:18:45;;;;;;;22.98;18.83;;;17.90;99.90;;;17.72;100.00;101640.38;4153304;28;20029;-66
2021/09/06 06:20:46;;;;;;;26.75;20.58;;;17.90;99.90;;;17.74;100.00;101654.41;4154492;28;20055;-66
2021/09/06 06:22:47;;;;;;;24.55;18.95;;;18.00;99.90;;;17.70;100.00;101653.94;4152727;28;20521;-66
2021/09/06 06:24:48;;;;;;;23.17;19.40;;;17.90;99.90;;;17.65;100.00;101659.78;4153920;28;20026;-67
2021/09/06 06:26:49;;;;;;;23.08;17.63;;;17.90;99.90;;;17.62;100.00;101654.81;4159635;28;20500;-66
2021/09/06 06:28:50;;;;;;;24.17;19.92;;;17.90;99.90;;;17.69;100.00;101657.59;4170408;28;20061;-66
2021/09/06 06:30:51;;;;;;;22.05;18.70;;;17.90;99.90;;;17.64;100.00;101654.66;4170477;28;20087;-66
2021/09/06 06:32:53;;;;;;;24.88;19.17;;;17.90;99.90;;;17.69;100.00;101660.25;4170730;28;20038;-66
2021/09/06 06:34:54;;;;;;;21.05;18.55;;;17.90;99.90;;;17.63;100.00;101656.47;4185380;28;20064;-66
2021/09/06 06:36:55;;;;;;;22.75;17.65;;;18.00;99.90;;;17.72;100.00;101665.25;4169366;28;20107;-66
2021/09/06 06:38:56;;;;;;;22.80;18.42;;;18.00;99.90;;;17.74;100.00;101665.06;4170726;28;20033;-66
2021/09/06 06:40:57;;;;;;;21.88;19.10;;;18.00;99.90;;;17.75;100.00;101672.06;4170705;28;20052;-66
2021/09/06 06:42:59;;;;;;;21.58;19.23;;;18.00;99.90;;;17.86;100.00;101671.66;4171073;28;20081;-66
2021/09/06 06:45:00;;;;;;;22.75;18.60;;;18.00;99.90;;;17.79;100.00;101666.19;4170276;28;20093;-66
2021/09/06 06:47:02;;;;;;;23.77;19.83;;;18.10;99.90;;;17.92;100.00;101676.25;4186192;28;20024;-66
2021/09/06 06:49:03;;;;;;;24.55;20.42;;;18.20;99.90;;;17.95;100.00;101676.69;4170776;28;20044;-66
2021/09/06 06:51:04;;;;;;;22.88;18.75;;;18.20;99.90;;;18.02;100.00;101682.16;4169790;28;20071;-66
2021/09/06 06:53:05;;;;;;;21.27;18.13;;;18.20;99.90;;;18.04;100.00;101680.16;4169988;28;20022;-66
2021/09/06 06:55:07;;;;;;;22.33;18.27;;;18.30;99.90;;;18.07;100.00;101674.44;4169630;28;20091;-67
2021/09/06 06:57:08;;;;;;;21.52;18.40;;;18.30;99.90;;;18.10;100.00;101682.91;4169071;28;20111;-66
2021/09/06 06:59:09;;;;;;;22.92;18.17;;;18.40;99.90;;;18.06;100.00;101667.44;4170426;28;20022;-66
2021/09/06 07:01:10;;;;;;;25.63;20.35;;;18.40;99.90;;;18.13;100.00;101690.53;4165481;28;20059;-67
2021/09/06 07:03:11;;;;;;;22.40;19.30;;;18.40;99.90;;;18.19;100.00;101691.66;4171138;28;20029;-66
2021/09/06 07:05:13;;;;;;;21.20;16.67;;;18.50;99.90;;;18.10;100.00;101692.75;4166310;28;20041;-66
2021/09/06 07:07:14;;;;;;;22.92;17.85;;;18.50;99.90;;;18.16;100.00;101695.53;4155053;28;20401;-66
2021/09/06 07:09:16;;;;;;;21.98;18.30;;;18.50;99.90;;;18.22;100.00;101699.31;4154781;28;20032;-66
2021/09/06 07:11:17;;;;;;;21.60;17.75;;;18.50;99.90;;;18.28;100.00;101687.88;4155062;28;20022;-66
2021/09/06 07:13:18;;;;;;;21.58;17.67;;;18.60;99.90;;;18.33;100.00;101696.19;4153868;28;20088;-66
2021/09/06 07:15:19;;;;;;;24.25;18.77;;;18.60;99.90;;;18.27;100.00;101696.94;4159669;28;20478;-66
2021/09/06 07:17:20;;;;;;;25.13;19.70;;;18.60;99.90;;;18.36;100.00;101697.66;4183706;28;20055;-66
2021/09/06 07:19:21;;;;;;;23.00;19.20;;;18.70;99.90;;;18.47;100.00;101700.72;4171357;28;20388;-66
2021/09/06 07:21:22;;;;;;;25.35;19.70;;;18.70;99.90;;;18.52;100.00;101697.50;4174956;28;20511;-66
2021/09/06 07:23:23;;;;;;;22.85;17.88;;;18.80;99.90;;;18.52;100.00;101695.66;4175942;28;20408;-66
2021/09/06 07:25:25;;;;;;;23.27;18.90;;;18.90;99.90;;;18.62;100.00;101701.56;4168975;28;20029;-66
2021/09/06 07:27:26;;;;;;;21.73;19.30;;;18.90;99.90;;;18.63;100.00;101705.91;4167638;28;20143;-66
2021/09/06 07:29:26;;;;;;;25.33;19.58;;;18.90;99.90;;;18.72;100.00;101698.63;4185151;28;20061;-66
2021/09/06 07:31:27;;;;;;;21.17;18.90;;;19.00;99.90;;;18.68;100.00;101703.50;4185649;28;20032;-66
2021/09/06 07:33:28;;;;;;;21.88;17.13;;;19.00;99.90;;;18.68;100.00;101706.19;4167749;28;20534;-66
2021/09/06 07:35:29;;;;;;;21.65;18.95;;;19.10;99.90;;;18.84;100.00;101710.50;4185421;28;20021;-66
2021/09/06 07:37:31;;;;;;;22.48;19.35;;;19.10;99.90;;;18.92;100.00;101705.03;4185549;28;20041;-66
2021/09/06 07:39:33;;;;;;;19.52;17.42;;;19.20;99.90;;;18.95;100.00;101707.34;4185545;28;20025;-66
2021/09/06 07:41:34;;;;;;;21.10;17.88;;;19.30;99.90;;;19.03;100.00;101709.91;4185457;28;20396;-66
2021/09/06 07:43:35;;;;;;;23.52;18.25;;;19.30;99.90;;;19.03;100.00;101709.06;4185155;28;20037;-66
2021/09/06 07:45:36;;;;;;;21.23;17.67;;;19.40;99.90;;;19.10;100.00;101723.34;4185175;28;20037;-66
2021/09/06 07:47:37;;;;;;;20.75;18.40;;;19.50;99.90;;;19.16;100.00;101717.25;4185275;28;20051;-66
2021/09/06 07:49:39;;;;;;;20.92;17.77;;;19.50;99.90;;;19.21;100.00;101709.50;4183963;28;20435;-66
2021/09/06 07:51:40;;;;;;;23.13;19.42;;;19.60;99.90;;;19.22;100.00;101716.50;4185036;28;20086;-66
2021/09/06 07:53:41;;;;;;;19.45;16.98;;;19.60;99.90;;;19.24;100.00;101717.13;4185272;28;20036;-66
2021/09/06 07:55:43;;;;;;;20.23;17.60;;;19.70;99.90;;;19.30;100.00;101714.53;4179758;28;20029;-66
2021/09/06 07:57:44;;;;;;;21.75;16.52;;;19.70;99.90;;;19.35;100.00;101725.50;4185189;28;20036;-66
2021/09/06 07:59:45;;;;;;;19.73;16.52;;;19.80;99.90;;;19.48;100.00;101718.66;4184824;28;20021;-66
2021/09/06 08:01:46;;;;;;;20.48;16.42;;;19.90;99.90;;;19.47;100.00;101712.50;4185089;28;20158;-66
2021/09/06 08:03:47;;;;;;;18.67;14.68;;;19.90;99.90;;;19.43;100.00;101708.53;4184923;28;20028;-66
2021/09/06 08:05:48;;;;;;;18.00;14.93;;;20.00;99.90;;;19.60;100.00;101715.28;4173717;28;20401;-66
2021/09/06 08:07:49;;;;;;;20.45;14.82;;;20.00;99.90;;;19.68;100.00;101701.75;4168369;28;20040;-66
2021/09/06 08:09:50;;;;;;;16.35;14.65;;;20.10;99.90;;;19.73;100.00;101707.41;4168683;28;20033;-66
2021/09/06 08:11:51;;;;;;;16.63;13.80;;;20.10;99.90;;;19.68;100.00;101699.09;4168670;28;20058;-66